Time,TemperatureF,DewpointF,PressureIn,WindDirection,WindDirectionDegrees,WindSpeedMPH,WindSpeedGustMPH,Humidity,HourlyPrecipIn,Conditions,Clouds,dailyrainin,SoftwareType,DateUTC
2014-02-13 00:00:00,28.8,26.0,30.04,NNW,338,0.0,3.0,89,0.00,,,0.00,VWS V14.01,2014-02-13 06:00:00,
2014-02-13 01:00:00,27.2,24.9,30.04,WSW,248,0.0,3.0,91,0.00,,,0.00,VWS V14.01,2014-02-13 07:00:00,
2014-02-13 02:00:00,27.2,24.9,30.04,WSW,248,0.0,3.0,91,0.00,,,0.00,VWS V14.01,2014-02-13 08:00:00,
2014-02-13 03:00:00,25.8,24.6,29.98,SW,225,0.0,1.0,95,0.00,,,0.00,VWS V14.01,2014-02-13 09:00:00,
2014-02-13 04:00:00,25.8,24.6,29.98,SW,225,0.0,1.0,95,0.00,,,0.00,VWS V14.01,2014-02-13 10:00:00,
2014-02-13 05:00:00,26.1,24.6,29.98,South,180,0.0,2.0,94,0.00,,,0.00,VWS V14.01,2014-02-13 11:00:00,
2014-02-13 06:00:00,26.1,24.6,29.98,South,180,0.0,2.0,94,0.00,,,0.00,VWS V14.01,2014-02-13 12:00:00,
2014-02-13 08:17:00,27.7,26.5,30.02,SSW,212,0.0,0.0,95,0.04,,,0.00,VWS V14.01,2014-02-13 14:17:00,
2014-02-13 08:22:00,28.8,27.0,30.01,SSW,208,3.0,3.0,93,0.04,,,0.00,VWS V14.01,2014-02-13 14:22:00,
2014-02-13 08:27:00,29.8,27.5,30.01,SSW,194,0.0,3.0,91,0.04,,,0.00,VWS V14.01,2014-02-13 14:27:00,
2014-02-13 08:32:00,30.3,28.0,30.01,South,179,3.0,3.0,91,0.04,,,0.00,VWS V14.01,2014-02-13 14:32:00,
2014-02-13 08:37:00,31.2,28.1,30.00,South,191,1.5,4.0,88,0.04,,,0.00,VWS V14.01,2014-02-13 14:37:00,
2014-02-13 08:42:00,32.0,28.6,30.01,WSW,239,1.5,4.0,87,0.04,,,0.00,VWS V14.01,2014-02-13 14:42:00,
2014-02-13 08:47:00,32.8,28.8,30.01,SW,217,4.5,6.0,85,0.04,,,0.00,VWS V14.01,2014-02-13 14:47:00,
2014-02-13 08:52:00,33.6,29.3,30.01,SSW,195,3.0,6.0,84,0.04,,,0.00,VWS V14.01,2014-02-13 14:52:00,
2014-02-13 08:57:00,34.1,29.5,30.01,SSE,166,3.0,7.0,83,0.04,,,0.00,VWS V14.01,2014-02-13 14:57:00,
2014-02-13 09:00:00,39.6,31.7,29.99,SE,145,0.0,8.0,73,0.04,,,0.00,VWS V14.01,2014-02-13 15:00:00,
2014-02-13 09:02:00,34.9,30.0,30.00,South,191,4.5,7.0,82,0.04,,,0.00,VWS V14.01,2014-02-13 15:02:00,
2014-02-13 09:07:00,35.3,29.8,30.00,SW,224,4.5,8.0,80,0.04,,,0.00,VWS V14.01,2014-02-13 15:07:00,
2014-02-13 09:12:00,35.8,29.9,30.00,SW,225,7.5,8.0,79,0.04,,,0.00,VWS V14.01,2014-02-13 15:12:00,
2014-02-13 09:17:00,36.3,30.4,30.01,South,187,1.5,8.0,79,0.04,,,0.00,VWS V14.01,2014-02-13 15:17:00,
2014-02-13 09:22:00,36.9,30.4,30.00,SSW,207,6.0,8.0,77,0.04,,,0.00,VWS V14.01,2014-02-13 15:22:00,
2014-02-13 09:27:00,37.1,30.6,30.00,SSW,210,10.5,10.5,77,0.04,,,0.00,VWS V14.01,2014-02-13 15:27:00,
2014-02-13 09:32:00,37.3,30.4,30.00,South,187,0.0,8.0,76,0.04,,,0.00,VWS V14.01,2014-02-13 15:32:00,
2014-02-13 09:37:00,37.7,30.8,30.00,SSW,213,6.0,8.0,76,0.04,,,0.00,VWS V14.01,2014-02-13 15:37:00,
2014-02-13 09:42:00,38.2,30.7,30.00,SW,215,3.0,8.0,74,0.04,,,0.00,VWS V14.01,2014-02-13 15:42:00,
2014-02-13 09:47:00,38.5,31.0,29.99,South,169,4.5,8.0,74,0.04,,,0.00,VWS V14.01,2014-02-13 15:47:00,
2014-02-13 09:52:00,38.8,31.2,29.99,South,184,4.5,8.0,74,0.04,,,0.00,VWS V14.01,2014-02-13 15:52:00,
2014-02-13 09:57:00,39.2,31.3,29.99,SSE,165,3.0,8.0,73,0.04,,,0.00,VWS V14.01,2014-02-13 15:57:00,
2014-02-13 10:00:00,39.6,31.7,29.99,SE,145,0.0,8.0,73,0.04,,,0.00,VWS V15.00,2014-02-13 16:00:00,
2014-02-13 10:02:00,39.7,31.8,29.99,SSW,204,3.0,5.0,73,0.00,,,0.00,VWS V14.01,2014-02-13 16:02:00,
2014-02-13 10:07:00,39.9,31.3,29.99,WSW,245,4.5,6.0,71,0.00,,,0.00,VWS V14.01,2014-02-13 16:07:00,
2014-02-13 10:12:00,40.1,31.5,29.99,WSW,250,1.5,7.0,71,0.00,,,0.00,VWS V14.01,2014-02-13 16:12:00,
2014-02-13 10:17:00,40.5,31.1,29.99,SSW,193,3.0,7.0,69,0.00,,,0.00,VWS V14.01,2014-02-13 16:17:00,
2014-02-13 10:22:00,41.0,31.6,29.99,West,259,3.0,7.0,69,0.00,,,0.00,VWS V14.01,2014-02-13 16:22:00,
2014-02-13 10:27:00,41.2,31.5,29.99,South,187,6.0,7.0,68,0.00,,,0.00,VWS V14.01,2014-02-13 16:27:00,
2014-02-13 10:32:00,41.6,32.2,30.00,WSW,240,4.5,7.0,69,0.00,,,0.00,VWS V14.01,2014-02-13 16:32:00,
2014-02-13 10:37:00,42.0,31.9,30.00,SW,224,3.0,7.0,67,0.00,,,0.00,VWS V14.01,2014-02-13 16:37:00,
2014-02-13 10:42:00,42.5,32.0,30.00,WSW,239,4.5,7.0,66,0.00,,,0.00,VWS V14.01,2014-02-13 16:42:00,
2014-02-13 10:47:00,43.0,31.3,30.00,South,176,6.0,7.0,63,0.00,,,0.00,VWS V14.01,2014-02-13 16:47:00,
2014-02-13 10:52:00,43.4,31.3,30.00,SW,230,7.5,8.0,62,0.00,,,0.00,VWS V14.01,2014-02-13 16:52:00,
2014-02-13 10:57:00,43.8,31.2,30.00,West,260,4.5,8.0,61,0.00,,,0.00,VWS V14.01,2014-02-13 16:57:00,
2014-02-13 11:00:00,47.4,29.7,29.97,SW,236,6.0,8.0,50,0.00,,,0.00,VWS V14.01,2014-02-13 17:00:00,
2014-02-13 11:02:00,44.0,31.8,30.00,East,80,4.5,8.0,62,0.00,,,0.00,VWS V14.01,2014-02-13 17:02:00,
2014-02-13 11:07:00,44.8,32.2,30.00,WSW,250,1.5,8.0,61,0.00,,,0.00,VWS V14.01,2014-02-13 17:07:00,
2014-02-13 11:12:00,45.1,32.1,30.00,WSW,255,3.0,8.0,60,0.00,,,0.00,VWS V14.01,2014-02-13 17:12:00,
2014-02-13 11:17:00,45.4,32.3,30.00,WSW,238,4.5,8.0,60,0.00,,,0.00,VWS V14.01,2014-02-13 17:17:00,
2014-02-13 11:22:00,45.8,31.9,29.99,SSW,207,6.0,8.0,58,0.00,,,0.00,VWS V14.01,2014-02-13 17:22:00,
2014-02-13 11:27:00,45.8,30.1,29.99,SW,228,7.5,8.0,54,0.00,,,0.00,VWS V14.01,2014-02-13 17:27:00,
2014-02-13 11:32:00,46.2,30.0,29.99,SW,231,4.5,8.0,53,0.00,,,0.00,VWS V14.01,2014-02-13 17:32:00,
2014-02-13 11:37:00,46.2,29.6,29.99,West,266,3.0,8.0,52,0.00,,,0.00,VWS V14.01,2014-02-13 17:37:00,
2014-02-13 11:42:00,46.4,29.8,29.99,WSW,255,4.5,8.0,52,0.00,,,0.00,VWS V14.01,2014-02-13 17:42:00,
2014-02-13 11:47:00,46.8,30.1,29.98,SW,219,4.5,8.0,52,0.00,,,0.00,VWS V14.01,2014-02-13 17:47:00,
2014-02-13 11:52:00,47.0,29.3,29.98,WSW,250,4.5,8.0,50,0.00,,,0.00,VWS V14.01,2014-02-13 17:52:00,
2014-02-13 11:57:00,47.1,28.9,29.97,West,266,4.5,8.0,49,0.00,,,0.00,VWS V14.01,2014-02-13 17:57:00,
2014-02-13 12:00:00,47.4,29.7,29.97,SW,236,6.0,8.0,50,0.00,,,0.00,VWS V15.00,2014-02-13 18:00:00,
2014-02-13 12:02:00,47.7,29.0,29.97,SW,229,4.5,8.0,48,0.00,,,0.00,VWS V14.01,2014-02-13 18:02:00,
2014-02-13 12:07:00,48.0,28.8,29.96,SW,218,3.0,8.0,47,0.00,,,0.00,VWS V14.01,2014-02-13 18:07:00,
2014-02-13 12:12:00,48.4,28.6,29.96,SW,231,12.0,12.0,46,0.00,,,0.00,VWS V14.01,2014-02-13 18:12:00,
2014-02-13 12:17:00,48.6,28.8,29.96,SSW,212,3.0,8.0,46,0.00,,,0.00,VWS V14.01,2014-02-13 18:17:00,
2014-02-13 12:22:00,48.8,29.0,29.95,WSW,257,6.0,8.0,46,0.00,,,0.00,VWS V14.01,2014-02-13 18:22:00,
2014-02-13 12:27:00,48.8,27.9,29.95,WSW,238,4.5,8.0,44,0.00,,,0.00,VWS V14.01,2014-02-13 18:27:00,
2014-02-13 12:32:00,48.9,28.0,29.95,WSW,242,3.0,8.0,44,0.00,,,0.00,VWS V14.01,2014-02-13 18:32:00,
2014-02-13 12:37:00,49.2,28.8,29.94,SSW,212,3.0,8.0,45,0.00,,,0.00,VWS V14.01,2014-02-13 18:37:00,
2014-02-13 12:42:00,49.2,28.8,29.94,WSW,239,3.0,8.0,45,0.00,,,0.00,VWS V14.01,2014-02-13 18:42:00,
2014-02-13 12:47:00,49.2,28.8,29.94,SW,224,4.5,8.0,45,0.00,,,0.00,VWS V14.01,2014-02-13 18:47:00,
2014-02-13 12:52:00,49.3,28.3,29.94,SW,214,4.5,8.0,44,0.00,,,0.00,VWS V14.01,2014-02-13 18:52:00,
2014-02-13 12:57:00,49.6,29.1,29.94,SW,235,4.5,8.0,45,0.00,,,0.00,VWS V14.01,2014-02-13 18:57:00,
2014-02-13 13:00:00,52.0,31.3,29.91,WSW,252,3.0,8.0,45,0.00,,,0.00,VWS V14.01,2014-02-13 19:00:00,
2014-02-13 13:02:00,49.7,29.2,29.94,SW,218,3.0,8.0,45,0.00,,,0.00,VWS V14.01,2014-02-13 19:02:00,
2014-02-13 13:07:00,49.9,29.4,29.94,West,263,4.5,8.0,45,0.00,,,0.00,VWS V14.01,2014-02-13 19:07:00,
2014-02-13 13:12:00,50.1,29.6,29.93,WSW,250,6.0,8.0,45,0.00,,,0.00,VWS V14.01,2014-02-13 19:12:00,
2014-02-13 13:17:00,50.4,29.3,29.93,WSW,250,4.5,8.0,44,0.00,,,0.00,VWS V14.01,2014-02-13 19:17:00,
2014-02-13 13:22:00,50.8,30.2,29.93,SW,217,1.5,8.0,45,0.00,,,0.00,VWS V14.01,2014-02-13 19:22:00,
2014-02-13 13:27:00,51.2,30.6,29.93,SSW,210,3.0,8.0,45,0.00,,,0.00,VWS V14.01,2014-02-13 19:27:00,
2014-02-13 13:32:00,51.4,29.7,29.93,WSW,243,3.0,8.0,43,0.00,,,0.00,VWS V14.01,2014-02-13 19:32:00,
2014-02-13 13:37:00,51.1,29.4,29.92,WSW,245,3.0,8.0,43,0.00,,,0.00,VWS V14.01,2014-02-13 19:37:00,
2014-02-13 13:42:00,51.1,30.5,29.92,West,274,4.5,8.0,45,0.00,,,0.00,VWS V14.01,2014-02-13 19:42:00,
2014-02-13 13:46:00,51.3,29.6,29.92,SW,224,4.5,8.0,43,0.00,,,0.00,VWS V14.01,2014-02-13 19:46:00,
2014-02-13 13:52:00,51.8,29.5,29.92,SW,220,6.0,8.0,42,0.00,,,0.00,VWS V14.01,2014-02-13 19:52:00,
2014-02-13 13:56:00,51.8,30.6,29.91,South,188,6.0,8.0,44,0.00,,,0.00,VWS V14.01,2014-02-13 19:56:00,
2014-02-13 14:00:00,52.0,31.3,29.91,WSW,252,3.0,8.0,45,0.00,,,0.00,VWS V15.00,2014-02-13 20:00:00,
2014-02-13 14:01:00,51.9,29.5,29.91,WSW,237,6.0,6.0,42,0.00,,,0.00,VWS V14.01,2014-02-13 20:01:00,
2014-02-13 14:06:00,51.8,30.0,29.91,SW,222,4.5,6.0,43,0.00,,,0.00,VWS V14.01,2014-02-13 20:06:00,
2014-02-13 14:11:00,51.9,30.1,29.90,SW,232,4.5,6.0,43,0.00,,,0.00,VWS V14.01,2014-02-13 20:11:00,
2014-02-13 14:16:00,51.6,30.4,29.90,SSW,211,3.0,6.0,44,0.00,,,0.00,VWS V14.01,2014-02-13 20:16:00,
2014-02-13 14:21:00,52.2,31.0,29.90,SW,226,3.0,6.0,44,0.00,,,0.00,VWS V14.01,2014-02-13 20:21:00,
2014-02-13 14:26:00,52.4,31.1,29.90,WNW,285,3.0,6.0,44,0.00,,,0.00,VWS V14.01,2014-02-13 20:26:00,
2014-02-13 14:31:00,52.5,30.7,29.89,SSE,163,1.5,7.0,43,0.00,,,0.00,VWS V14.01,2014-02-13 20:31:00,
2014-02-13 14:36:00,52.8,30.9,29.89,WNW,291,1.5,7.0,43,0.00,,,0.00,VWS V14.01,2014-02-13 20:36:00,
2014-02-13 14:41:00,52.9,30.5,29.89,SW,229,7.5,7.5,42,0.00,,,0.00,VWS V14.01,2014-02-13 20:41:00,
2014-02-13 14:46:00,52.9,31.0,29.88,South,172,4.5,7.0,43,0.00,,,0.00,VWS V14.01,2014-02-13 20:46:00,
2014-02-13 14:51:00,53.1,31.2,29.89,WSW,240,1.5,7.0,43,0.00,,,0.00,VWS V14.01,2014-02-13 20:51:00,
2014-02-13 14:56:00,53.5,31.0,29.88,WSW,245,4.5,8.0,42,0.00,,,0.00,VWS V14.01,2014-02-13 20:56:00,
2014-02-13 15:00:00,54.1,29.1,29.85,SW,214,6.0,11.0,38,0.00,,,0.00,VWS V14.01,2014-02-13 21:00:00,
2014-02-13 15:01:00,53.2,30.7,29.88,SSW,207,4.5,8.0,42,0.00,,,0.00,VWS V14.01,2014-02-13 21:01:00,
2014-02-13 15:06:00,53.2,30.7,29.87,SW,222,3.0,8.0,42,0.00,,,0.00,VWS V14.01,2014-02-13 21:06:00,
2014-02-13 15:11:00,53.5,30.4,29.87,WSW,248,4.5,8.0,41,0.00,,,0.00,VWS V14.01,2014-02-13 21:11:00,
2014-02-13 15:16:00,53.4,30.3,29.86,WSW,243,7.5,9.0,41,0.00,,,0.00,VWS V14.01,2014-02-13 21:16:00,
2014-02-13 15:21:00,53.3,30.2,29.86,SSW,197,10.5,10.5,41,0.00,,,0.00,VWS V14.01,2014-02-13 21:21:00,
2014-02-13 15:26:00,53.5,29.8,29.86,WSW,240,10.5,11.0,40,0.00,,,0.00,VWS V14.01,2014-02-13 21:26:00,
2014-02-13 15:31:00,53.6,29.9,29.86,SW,228,3.0,11.0,40,0.00,,,0.00,VWS V14.01,2014-02-13 21:31:00,
2014-02-13 15:36:00,53.8,29.4,29.86,SW,228,4.5,11.0,39,0.00,,,0.00,VWS V14.01,2014-02-13 21:36:00,
2014-02-13 15:41:00,53.7,29.4,29.86,SSW,205,6.0,11.0,39,0.00,,,0.00,VWS V14.01,2014-02-13 21:41:00,
2014-02-13 15:46:00,53.9,28.9,29.86,SSW,207,4.5,11.0,38,0.00,,,0.00,VWS V14.01,2014-02-13 21:46:00,
2014-02-13 15:51:00,53.9,29.5,29.86,SSW,198,4.5,11.0,39,0.00,,,0.00,VWS V14.01,2014-02-13 21:51:00,
2014-02-13 15:56:00,53.9,29.5,29.85,SSE,159,6.0,11.0,39,0.00,,,0.00,VWS V14.01,2014-02-13 21:56:00,
2014-02-13 16:00:00,54.1,29.1,29.85,SW,214,6.0,11.0,38,0.00,,,0.00,VWS V15.00,2014-02-13 22:00:00,
2014-02-13 16:01:00,54.1,29.7,29.85,SW,224,9.0,9.0,39,0.00,,,0.00,VWS V14.01,2014-02-13 22:01:00,
2014-02-13 16:06:00,54.0,29.6,29.85,SSW,197,7.5,7.5,39,0.00,,,0.00,VWS V14.01,2014-02-13 22:06:00,
2014-02-13 16:11:00,53.8,29.4,29.85,WSW,245,3.0,8.0,39,0.00,,,0.00,VWS V14.01,2014-02-13 22:11:00,
2014-02-13 16:16:00,53.8,29.4,29.85,SW,236,3.0,8.0,39,0.00,,,0.00,VWS V14.01,2014-02-13 22:16:00,
2014-02-13 16:21:00,53.8,29.4,29.85,SSW,203,4.5,8.0,39,0.00,,,0.00,VWS V14.01,2014-02-13 22:21:00,
2014-02-13 16:26:00,53.7,29.4,29.85,WSW,243,4.5,8.0,39,0.00,,,0.00,VWS V14.01,2014-02-13 22:26:00,
2014-02-13 16:31:00,53.7,29.4,29.85,SE,143,7.5,8.0,39,0.00,,,0.00,VWS V14.01,2014-02-13 22:31:00,
2014-02-13 16:36:00,53.7,29.4,29.85,SW,229,7.5,8.0,39,0.00,,,0.00,VWS V14.01,2014-02-13 22:36:00,
2014-02-13 16:41:00,53.6,29.9,29.86,SW,229,1.5,8.0,40,0.00,,,0.00,VWS V14.01,2014-02-13 22:41:00,
2014-02-13 16:46:00,53.7,30.0,29.87,WSW,255,3.0,8.0,40,0.00,,,0.00,VWS V14.01,2014-02-13 22:46:00,
2014-02-13 16:51:00,53.7,30.0,29.87,SW,228,6.0,8.0,40,0.00,,,0.00,VWS V14.01,2014-02-13 22:51:00,
2014-02-13 16:56:00,53.5,29.8,29.87,West,271,1.5,8.0,40,0.00,,,0.00,VWS V14.01,2014-02-13 22:56:00,
2014-02-13 17:00:00,49.7,30.3,29.88,SSW,193,1.5,8.0,47,0.00,,,0.00,VWS V14.01,2014-02-13 23:00:00,
2014-02-13 17:01:00,53.3,29.6,29.87,SW,226,1.5,8.0,40,0.00,,,0.00,VWS V14.01,2014-02-13 23:01:00,
2014-02-13 17:06:00,53.1,30.0,29.87,SW,232,4.5,8.0,41,0.00,,,0.00,VWS V14.01,2014-02-13 23:06:00,
2014-02-13 17:11:00,53.0,30.0,29.87,SW,231,1.5,8.0,41,0.00,,,0.00,VWS V14.01,2014-02-13 23:11:00,
2014-02-13 17:16:00,52.8,30.4,29.87,West,259,1.5,8.0,42,0.00,,,0.00,VWS V14.01,2014-02-13 23:16:00,
2014-02-13 17:21:00,52.5,30.7,29.87,SW,224,3.0,8.0,43,0.00,,,0.00,VWS V14.01,2014-02-13 23:21:00,
2014-02-13 17:26:00,52.3,30.5,29.87,SW,226,1.5,8.0,43,0.00,,,0.00,VWS V14.01,2014-02-13 23:26:00,
2014-02-13 17:31:00,51.9,30.1,29.87,South,191,3.0,8.0,43,0.00,,,0.00,VWS V14.01,2014-02-13 23:31:00,
2014-02-13 17:36:00,51.4,30.2,29.87,SW,235,1.5,8.0,44,0.00,,,0.00,VWS V14.01,2014-02-13 23:36:00,
2014-02-13 17:41:00,51.1,30.0,29.87,WSW,245,1.5,8.0,44,0.00,,,0.00,VWS V14.01,2014-02-13 23:41:00,
2014-02-13 17:46:00,50.8,30.2,29.87,SW,224,1.5,8.0,45,0.00,,,0.00,VWS V14.01,2014-02-13 23:46:00,
2014-02-13 17:51:00,50.6,30.6,29.88,SSW,207,1.5,8.0,46,0.00,,,0.00,VWS V14.01,2014-02-13 23:51:00,
2014-02-13 17:56:00,50.1,30.1,29.88,SSW,208,1.5,8.0,46,0.00,,,0.00,VWS V14.01,2014-02-13 23:56:00,
2014-02-13 18:00:00,49.7,30.3,29.88,SSW,193,1.5,8.0,47,0.00,,,0.00,VWS V15.00,2014-02-14 00:00:00,
2014-02-13 18:01:00,49.6,30.2,29.88,SSW,200,1.5,2.0,47,0.00,,,0.00,VWS V14.01,2014-02-14 00:01:00,
2014-02-13 18:06:00,49.2,30.4,29.88,SSW,205,0.0,2.0,48,0.00,,,0.00,VWS V14.01,2014-02-14 00:06:00,
2014-02-13 18:11:00,48.8,30.0,29.88,SW,232,1.5,2.0,48,0.00,,,0.00,VWS V14.01,2014-02-14 00:11:00,
2014-02-13 18:16:00,48.5,30.2,29.88,WSW,238,1.5,2.0,49,0.00,,,0.00,VWS V14.01,2014-02-14 00:16:00,
2014-02-13 18:21:00,48.3,30.0,29.88,SW,228,0.0,2.0,49,0.00,,,0.00,VWS V14.01,2014-02-14 00:21:00,
2014-02-13 18:26:00,48.0,29.8,29.88,SSW,212,0.0,2.0,49,0.00,,,0.00,VWS V14.01,2014-02-14 00:26:00,
2014-02-13 18:31:00,47.7,30.0,29.88,SW,236,0.0,2.0,50,0.00,,,0.00,VWS V14.01,2014-02-14 00:31:00,
2014-02-13 18:36:00,47.5,29.8,29.88,WSW,246,0.0,2.0,50,0.00,,,0.00,VWS V14.01,2014-02-14 00:36:00,
2014-02-13 18:41:00,47.2,30.0,29.88,WSW,246,0.0,2.0,51,0.00,,,0.00,VWS V14.01,2014-02-14 00:41:00,
2014-02-13 18:46:00,47.0,29.8,29.88,SW,222,1.5,2.0,51,0.00,,,0.00,VWS V14.01,2014-02-14 00:46:00,
2014-02-13 18:51:00,46.8,30.1,29.88,SW,235,0.0,2.0,52,0.00,,,0.00,VWS V14.01,2014-02-14 00:51:00,
2014-02-13 18:56:00,46.6,29.9,29.88,SW,235,0.0,2.0,52,0.00,,,0.00,VWS V14.01,2014-02-14 00:56:00,
2014-02-13 19:00:00,41.8,29.4,29.87,South,188,0.0,2.0,61,0.00,,,0.00,VWS V14.01,2014-02-14 01:00:00,
2014-02-13 19:01:00,46.3,30.1,29.87,South,187,0.0,2.0,53,0.00,,,0.00,VWS V14.01,2014-02-14 01:01:00,
2014-02-13 19:06:00,45.9,29.8,29.87,South,187,0.0,2.0,53,0.00,,,0.00,VWS V14.01,2014-02-14 01:06:00,
2014-02-13 19:11:00,45.3,29.6,29.88,South,187,0.0,2.0,54,0.00,,,0.00,VWS V14.01,2014-02-14 01:11:00,
2014-02-13 19:16:00,44.8,29.6,29.88,South,187,0.0,2.0,55,0.00,,,0.00,VWS V14.01,2014-02-14 01:16:00,
2014-02-13 19:21:00,44.2,29.5,29.87,South,187,0.0,2.0,56,0.00,,,0.00,VWS V14.01,2014-02-14 01:21:00,
2014-02-13 19:26:00,43.8,29.6,29.87,South,188,0.0,2.0,57,0.00,,,0.00,VWS V14.01,2014-02-14 01:26:00,
2014-02-13 19:31:00,43.5,29.3,29.87,South,188,0.0,2.0,57,0.00,,,0.00,VWS V14.01,2014-02-14 01:31:00,
2014-02-13 19:36:00,43.2,29.4,29.87,South,188,0.0,2.0,58,0.00,,,0.00,VWS V14.01,2014-02-14 01:36:00,
2014-02-13 19:41:00,42.9,29.2,29.87,South,188,0.0,2.0,58,0.00,,,0.00,VWS V14.01,2014-02-14 01:41:00,
2014-02-13 19:46:00,42.6,29.3,29.87,South,188,0.0,2.0,59,0.00,,,0.00,VWS V14.01,2014-02-14 01:46:00,
2014-02-13 19:51:00,42.2,29.3,29.87,South,188,0.0,2.0,60,0.00,,,0.00,VWS V14.01,2014-02-14 01:51:00,
2014-02-13 19:56:00,42.0,29.1,29.87,South,188,0.0,2.0,60,0.00,,,0.00,VWS V14.01,2014-02-14 01:56:00,
2014-02-13 20:00:00,41.8,29.4,29.87,South,188,0.0,2.0,61,0.00,,,0.00,VWS V15.00,2014-02-14 02:00:00,
2014-02-13 20:01:00,41.7,29.3,29.88,South,188,0.0,0.0,61,0.00,,,0.00,VWS V14.01,2014-02-14 02:01:00,
2014-02-13 20:06:00,41.3,29.3,29.88,South,188,0.0,0.0,62,0.00,,,0.00,VWS V14.01,2014-02-14 02:06:00,
2014-02-13 20:11:00,40.9,29.3,29.88,South,188,0.0,0.0,63,0.00,,,0.00,VWS V14.01,2014-02-14 02:11:00,
2014-02-13 20:16:00,40.8,29.2,29.88,South,188,0.0,0.0,63,0.00,,,0.00,VWS V14.01,2014-02-14 02:16:00,
2014-02-13 20:21:00,40.7,29.5,29.88,South,188,0.0,0.0,64,0.00,,,0.00,VWS V14.01,2014-02-14 02:21:00,
2014-02-13 20:26:00,40.5,29.3,29.88,South,189,0.0,0.0,64,0.00,,,0.00,VWS V14.01,2014-02-14 02:26:00,
2014-02-13 20:31:00,40.2,29.0,29.88,South,188,0.0,0.0,64,0.00,,,0.00,VWS V14.01,2014-02-14 02:31:00,
2014-02-13 20:36:00,40.1,29.3,29.88,South,188,0.0,0.0,65,0.00,,,0.00,VWS V14.01,2014-02-14 02:36:00,
2014-02-13 20:41:00,40.2,29.4,29.89,South,188,0.0,0.0,65,0.00,,,0.00,VWS V14.01,2014-02-14 02:41:00,
2014-02-13 20:46:00,40.0,29.2,29.89,South,188,0.0,0.0,65,0.00,,,0.00,VWS V14.01,2014-02-14 02:46:00,
2014-02-13 20:51:00,39.9,29.1,29.88,South,188,0.0,0.0,65,0.00,,,0.00,VWS V14.01,2014-02-14 02:51:00,
2014-02-13 20:56:00,39.9,29.5,29.89,South,188,0.0,0.0,66,0.00,,,0.00,VWS V14.01,2014-02-14 02:56:00,
2014-02-13 21:00:00,38.2,29.3,29.87,South,188,0.0,0.0,70,0.00,,,0.00,VWS V14.01,2014-02-14 03:00:00,
2014-02-13 21:01:00,39.7,29.3,29.89,South,188,0.0,0.0,66,0.00,,,0.00,VWS V14.01,2014-02-14 03:01:00,
2014-02-13 21:06:00,39.4,29.0,29.89,South,188,0.0,0.0,66,0.00,,,0.00,VWS V14.01,2014-02-14 03:06:00,
2014-02-13 21:11:00,39.1,29.1,29.89,South,188,0.0,0.0,67,0.00,,,0.00,VWS V14.01,2014-02-14 03:11:00,
2014-02-13 21:16:00,38.8,29.2,29.89,South,189,0.0,0.0,68,0.00,,,0.00,VWS V14.01,2014-02-14 03:16:00,
2014-02-13 21:21:00,38.7,29.1,29.89,South,188,0.0,0.0,68,0.00,,,0.00,VWS V14.01,2014-02-14 03:21:00,
2014-02-13 21:26:00,38.5,29.2,29.88,South,188,0.0,0.0,69,0.00,,,0.00,VWS V14.01,2014-02-14 03:26:00,
2014-02-13 21:31:00,38.6,29.3,29.88,South,188,0.0,0.0,69,0.00,,,0.00,VWS V14.01,2014-02-14 03:31:00,
2014-02-13 21:36:00,38.8,29.5,29.88,South,188,0.0,0.0,69,0.00,,,0.00,VWS V14.01,2014-02-14 03:36:00,
2014-02-13 21:41:00,38.7,29.1,29.88,South,188,0.0,0.0,68,0.00,,,0.00,VWS V14.01,2014-02-14 03:41:00,
2014-02-13 21:46:00,38.3,29.0,29.88,South,188,0.0,0.0,69,0.00,,,0.00,VWS V14.01,2014-02-14 03:46:00,
2014-02-13 21:51:00,38.2,29.3,29.88,South,188,0.0,0.0,70,0.00,,,0.00,VWS V14.01,2014-02-14 03:51:00,
2014-02-13 21:56:00,38.1,29.2,29.88,South,188,0.0,0.0,70,0.00,,,0.00,VWS V14.01,2014-02-14 03:56:00,
2014-02-13 22:00:00,38.2,29.3,29.87,South,188,0.0,0.0,70,0.00,,,0.00,VWS V15.00,2014-02-14 04:00:00,
2014-02-13 22:01:00,38.2,29.3,29.87,South,188,0.0,0.0,70,0.00,,,0.00,VWS V14.01,2014-02-14 04:01:00,
2014-02-13 22:06:00,38.3,29.4,29.87,South,188,0.0,0.0,70,0.00,,,0.00,VWS V14.01,2014-02-14 04:06:00,
2014-02-13 22:11:00,38.4,29.5,29.87,South,188,0.0,0.0,70,0.00,,,0.00,VWS V14.01,2014-02-14 04:11:00,
2014-02-13 22:16:00,38.8,29.5,29.87,South,189,0.0,0.0,69,0.00,,,0.00,VWS V14.01,2014-02-14 04:16:00,
2014-02-13 22:21:00,39.0,29.7,29.87,South,188,0.0,0.0,69,0.00,,,0.00,VWS V14.01,2014-02-14 04:21:00,
2014-02-13 22:26:00,39.2,29.9,29.87,South,188,0.0,0.0,69,0.00,,,0.00,VWS V14.01,2014-02-14 04:26:00,
2014-02-13 22:31:00,39.1,29.8,29.87,South,188,0.0,0.0,69,0.00,,,0.00,VWS V14.01,2014-02-14 04:31:00,
2014-02-13 22:36:00,38.9,29.6,29.86,South,188,0.0,0.0,69,0.00,,,0.00,VWS V14.01,2014-02-14 04:36:00,
2014-02-13 22:41:00,38.5,29.2,29.86,South,188,0.0,0.0,69,0.00,,,0.00,VWS V14.01,2014-02-14 04:41:00,
2014-02-13 22:46:00,38.0,29.5,29.86,South,188,0.0,0.0,71,0.00,,,0.00,VWS V14.01,2014-02-14 04:46:00,
2014-02-13 22:51:00,37.7,29.2,29.84,South,176,0.0,0.0,71,0.00,,,0.00,VWS V14.01,2014-02-14 04:51:00,
2014-02-13 22:56:00,37.7,29.8,29.83,South,175,0.0,1.0,73,0.00,,,0.00,VWS V14.01,2014-02-14 04:56:00,
2014-02-13 23:00:00,39.5,31.6,29.83,SSE,163,0.0,2.0,73,0.00,,,0.00,VWS V14.01,2014-02-14 05:00:00,
2014-02-13 23:01:00,38.5,30.3,29.83,SSE,163,0.0,2.0,72,0.00,,,0.00,VWS V14.01,2014-02-14 05:01:00,
2014-02-13 23:06:00,39.4,30.8,29.84,SSE,163,0.0,2.0,71,0.00,,,0.00,VWS V14.01,2014-02-14 05:06:00,
2014-02-13 23:11:00,39.6,30.6,29.84,SSE,163,0.0,2.0,70,0.00,,,0.00,VWS V14.01,2014-02-14 05:11:00,
2014-02-13 23:16:00,39.7,30.7,29.84,SSE,163,0.0,2.0,70,0.00,,,0.00,VWS V14.01,2014-02-14 05:16:00,
2014-02-13 23:21:00,39.7,30.7,29.84,SSE,163,0.0,2.0,70,0.00,,,0.00,VWS V14.01,2014-02-14 05:21:00,
2014-02-13 23:26:00,39.7,30.7,29.84,SSE,163,0.0,2.0,70,0.00,,,0.00,VWS V14.01,2014-02-14 05:26:00,
2014-02-13 23:31:00,39.7,30.7,29.84,SSE,163,0.0,2.0,70,0.00,,,0.00,VWS V14.01,2014-02-14 05:31:00,
2014-02-13 23:36:00,39.4,30.8,29.84,SSE,163,0.0,2.0,71,0.00,,,0.00,VWS V14.01,2014-02-14 05:36:00,
2014-02-13 23:41:00,39.2,30.6,29.83,SSE,163,0.0,2.0,71,0.00,,,0.00,VWS V14.01,2014-02-14 05:41:00,
2014-02-13 23:46:00,38.9,30.7,29.83,SSE,163,0.0,2.0,72,0.00,,,0.00,VWS V14.01,2014-02-14 05:46:00,
2014-02-13 23:51:00,38.9,31.0,29.83,SSE,163,0.0,2.0,73,0.00,,,0.00,VWS V14.01,2014-02-14 05:51:00,
2014-02-13 23:56:00,39.1,31.2,29.83,SSE,163,0.0,2.0,73,0.00,,,0.00,VWS V14.01,2014-02-14 05:56:00,